createdAt,value
2023-04-15T00:00:55.327Z,581.00
2023-04-15T00:01:55.380Z,601.00
2023-04-15T00:02:55.537Z,607.00
2023-04-15T00:03:55.412Z,599.00
2023-04-15T00:04:55.348Z,601.00
2023-04-15T00:05:55.314Z,583.00
2023-04-15T00:06:55.273Z,562.00
2023-04-15T00:07:55.266Z,539.00
2023-04-15T00:08:55.265Z,555.00
2023-04-15T00:09:55.293Z,569.00
2023-04-15T00:10:55.278Z,504.00
2023-04-15T00:11:55.272Z,503.00
2023-04-15T00:12:55.256Z,529.00
2023-04-15T00:13:55.293Z,504.00
2023-04-15T00:14:55.354Z,526.00
2023-04-15T00:15:55.308Z,540.00
2023-04-15T00:16:55.354Z,539.00
2023-04-15T00:17:55.366Z,537.00
2023-04-15T00:18:55.356Z,527.00
2023-04-15T00:19:55.410Z,522.00
2023-04-15T00:20:55.411Z,512.00
2023-04-15T00:21:55.455Z,500.00
2023-04-15T00:22:55.470Z,536.00
2023-04-15T00:23:55.481Z,514.00
2023-04-15T00:24:55.527Z,519.00
2023-04-15T00:25:55.577Z,522.00
2023-04-15T00:26:55.550Z,561.00
2023-04-15T00:27:55.574Z,560.00
2023-04-15T00:28:55.588Z,567.00
2023-04-15T00:29:55.575Z,559.00
2023-04-15T00:30:55.685Z,552.00
2023-04-15T00:31:55.690Z,548.00
2023-04-15T00:32:55.734Z,541.00
2023-04-15T00:33:55.677Z,539.00
2023-04-15T00:34:55.680Z,526.00
2023-04-15T00:35:55.708Z,556.00
2023-04-15T00:36:55.720Z,542.00
2023-04-15T00:37:55.731Z,530.00
2023-04-15T00:38:55.740Z,536.00
2023-04-15T00:39:55.758Z,533.00
2023-04-15T00:40:55.774Z,530.00
2023-04-15T00:41:55.777Z,537.00
2023-04-15T00:42:55.799Z,544.00
2023-04-15T00:43:55.851Z,536.00
2023-04-15T00:44:55.830Z,539.00
2023-04-15T00:45:55.871Z,550.00
2023-04-15T00:46:55.836Z,572.00
2023-04-15T00:47:55.899Z,572.00
2023-04-15T00:48:55.859Z,558.00
2023-04-15T00:49:55.895Z,556.00
2023-04-15T00:50:55.902Z,547.00
2023-04-15T00:51:55.921Z,546.00
2023-04-15T00:52:55.937Z,541.00
2023-04-15T00:53:55.992Z,516.00
2023-04-15T00:54:55.999Z,500.00
2023-04-15T00:55:56.030Z,526.00
2023-04-15T00:56:56.040Z,539.00
2023-04-15T00:57:56.049Z,569.00
2023-04-15T00:58:56.089Z,588.00
2023-04-15T00:59:56.134Z,575.00
2023-04-15T01:00:56.107Z,582.00
2023-04-15T01:01:56.245Z,559.00
2023-04-15T01:02:56.227Z,544.00
2023-04-15T01:03:56.361Z,553.00
2023-04-15T01:04:56.189Z,562.00
2023-04-15T01:05:56.190Z,530.00
2023-04-15T01:06:56.182Z,514.00
2023-04-15T01:07:56.201Z,504.00
2023-04-15T01:08:56.236Z,510.00
2023-04-15T01:09:56.263Z,529.00
2023-04-15T01:10:56.260Z,525.00
2023-04-15T01:11:56.291Z,519.00
2023-04-15T01:12:56.338Z,537.00
2023-04-15T01:13:56.371Z,503.00
2023-04-15T01:14:56.393Z,509.00
2023-04-15T01:15:56.449Z,530.00
2023-04-15T01:16:56.433Z,532.00
2023-04-15T01:17:56.471Z,532.00
2023-04-15T01:18:56.474Z,541.00
2023-04-15T01:19:56.461Z,541.00
2023-04-15T01:20:56.508Z,522.00
2023-04-15T01:21:56.498Z,506.00
2023-04-15T01:22:56.540Z,500.00
2023-04-15T01:23:56.549Z,507.00
2023-04-15T01:24:56.592Z,526.00
2023-04-15T01:25:56.565Z,531.00
2023-04-15T01:26:56.568Z,533.00
2023-04-15T01:27:56.587Z,543.00
2023-04-15T01:28:56.609Z,534.00
2023-04-15T01:29:56.632Z,537.00
2023-04-15T01:30:56.649Z,539.00
2023-04-15T01:31:56.833Z,500.00
2023-04-15T01:32:56.743Z,502.00
2023-04-15T01:33:56.724Z,504.00
2023-04-15T01:34:56.748Z,525.00
2023-04-15T01:35:56.737Z,542.00
2023-04-15T01:36:56.757Z,523.00
2023-04-15T01:37:56.761Z,529.00
2023-04-15T01:38:56.794Z,543.00
2023-04-15T01:39:56.791Z,558.00
2023-04-15T01:40:56.780Z,545.00
2023-04-15T01:41:56.797Z,542.00
2023-04-15T01:42:56.810Z,542.00
2023-04-15T01:43:56.844Z,548.00
2023-04-15T01:44:56.834Z,525.00
2023-04-15T01:45:56.838Z,503.00
2023-04-15T01:46:56.976Z,504.00
2023-04-15T01:47:56.904Z,514.00
2023-04-15T01:48:56.934Z,522.00
2023-04-15T01:49:56.890Z,514.00
2023-04-15T01:50:56.888Z,520.00
2023-04-15T01:51:56.921Z,533.00
2023-04-15T01:52:56.913Z,514.00
2023-04-15T01:53:56.947Z,535.00
2023-04-15T01:54:56.955Z,503.00
2023-04-15T01:55:56.975Z,505.00
2023-04-15T01:56:57.013Z,517.00
2023-04-15T01:57:57.040Z,499.00
2023-04-15T01:58:57.061Z,519.00
2023-04-15T01:59:57.150Z,480.00
2023-04-15T02:00:57.189Z,500.00
2023-04-15T02:01:57.189Z,556.00
2023-04-15T02:02:57.269Z,591.00
2023-04-15T02:03:57.230Z,600.00
2023-04-15T02:04:57.174Z,616.00
2023-04-15T02:05:57.164Z,603.00
2023-04-15T02:06:57.184Z,605.00
2023-04-15T02:07:57.167Z,596.00
2023-04-15T02:08:57.174Z,592.00
2023-04-15T02:09:57.208Z,590.00
2023-04-15T02:10:57.168Z,582.00
2023-04-15T02:11:57.160Z,578.00
2023-04-15T02:12:57.180Z,589.00
2023-04-15T02:13:57.170Z,603.00
2023-04-15T02:14:57.210Z,599.00
2023-04-15T02:15:57.184Z,597.00
2023-04-15T02:16:57.241Z,595.00
2023-04-15T02:17:57.268Z,585.00
2023-04-15T02:18:57.191Z,600.00
2023-04-15T02:19:57.208Z,573.00
2023-04-15T02:20:57.215Z,590.00
2023-04-15T02:21:57.199Z,591.00
2023-04-15T02:22:57.205Z,597.00
2023-04-15T02:23:57.187Z,605.00
2023-04-15T02:24:57.210Z,578.00
2023-04-15T02:25:57.264Z,588.00
2023-04-15T02:26:57.233Z,587.00
2023-04-15T02:27:57.241Z,590.00
2023-04-15T02:28:57.248Z,584.00
2023-04-15T02:29:57.260Z,564.00
2023-04-15T02:30:57.278Z,535.00
2023-04-15T02:31:57.352Z,557.00
2023-04-15T02:32:57.287Z,572.00
2023-04-15T02:33:57.290Z,577.00
2023-04-15T02:34:57.310Z,566.00
2023-04-15T02:35:57.409Z,566.00
2023-04-15T02:36:57.334Z,569.00
2023-04-15T02:37:57.353Z,542.00
2023-04-15T02:38:57.341Z,532.00
2023-04-15T02:39:57.364Z,529.00
2023-04-15T02:40:57.363Z,520.00
2023-04-15T02:41:57.391Z,505.00
2023-04-15T02:42:57.389Z,514.00
2023-04-15T02:43:57.399Z,500.00
2023-04-15T02:44:57.434Z,502.00
2023-04-15T02:45:57.442Z,517.00
2023-04-15T02:46:57.398Z,533.00
2023-04-15T02:47:57.441Z,554.00
2023-04-15T02:48:57.390Z,582.00
2023-04-15T02:49:57.405Z,543.00
2023-04-15T02:50:57.387Z,543.00
2023-04-15T02:51:57.392Z,521.00
2023-04-15T02:52:57.406Z,517.00
2023-04-15T02:53:57.440Z,488.00
2023-04-15T02:54:57.489Z,493.00
2023-04-15T02:55:57.498Z,507.00
2023-04-15T02:56:57.495Z,554.00
2023-04-15T02:57:57.493Z,597.00
2023-04-15T02:58:57.497Z,555.00
2023-04-15T02:59:57.496Z,602.00
2023-04-15T03:00:57.521Z,616.00
2023-04-15T03:01:57.496Z,576.00
2023-04-15T03:02:57.588Z,577.00
2023-04-15T03:03:57.544Z,566.00
2023-04-15T03:04:57.492Z,603.00
2023-04-15T03:05:57.489Z,586.00
2023-04-15T03:06:57.517Z,577.00
2023-04-15T03:07:57.502Z,581.00
2023-04-15T03:08:57.503Z,597.00
2023-04-15T03:09:57.506Z,594.00
2023-04-15T03:10:57.500Z,606.00
2023-04-15T03:11:57.532Z,596.00
2023-04-15T03:12:57.551Z,557.00
2023-04-15T03:13:57.529Z,550.00
2023-04-15T03:14:57.550Z,528.00
2023-04-15T03:15:57.683Z,566.00
2023-04-15T03:16:57.569Z,574.00
2023-04-15T03:17:57.602Z,594.00
2023-04-15T03:18:57.616Z,559.00
2023-04-15T03:19:57.675Z,563.00
2023-04-15T03:20:57.624Z,582.00
2023-04-15T03:21:57.637Z,566.00
2023-04-15T03:22:57.647Z,559.00
2023-04-15T03:23:57.681Z,587.00
2023-04-15T03:24:57.714Z,576.00
2023-04-15T03:25:57.716Z,596.00
2023-04-15T03:26:57.720Z,588.00
2023-04-15T03:27:57.727Z,574.00
2023-04-15T03:28:57.714Z,545.00
2023-04-15T03:29:57.748Z,537.00
2023-04-15T03:30:57.772Z,509.00
2023-04-15T03:31:57.751Z,564.00
2023-04-15T03:32:57.788Z,558.00
2023-04-15T03:33:57.758Z,537.00
2023-04-15T03:34:57.797Z,557.00
2023-04-15T03:35:57.780Z,553.00
2023-04-15T03:36:57.783Z,567.00
2023-04-15T03:37:57.788Z,588.00
2023-04-15T03:38:57.815Z,604.00
2023-04-15T03:39:57.792Z,575.00
2023-04-15T03:40:57.781Z,583.00
2023-04-15T03:41:57.800Z,571.00
2023-04-15T03:42:57.798Z,537.00
2023-04-15T03:43:57.796Z,556.00
2023-04-15T03:44:57.827Z,552.00
2023-04-15T03:45:58.404Z,554.00
2023-04-15T03:46:57.841Z,578.00
2023-04-15T03:48:07.279Z,579.00
2023-04-15T03:48:58.952Z,522.00
2023-04-15T03:49:57.831Z,557.00
2023-04-15T03:50:57.836Z,559.00
2023-04-15T03:51:57.815Z,570.00
2023-04-15T03:52:57.822Z,585.00
2023-04-15T03:53:57.821Z,590.00
2023-04-15T03:54:57.815Z,614.00
2023-04-15T03:55:57.809Z,594.00
2023-04-15T03:56:57.801Z,579.00
2023-04-15T03:57:57.793Z,571.00
2023-04-15T03:58:57.811Z,548.00
2023-04-15T03:59:57.886Z,538.00
2023-04-15T04:00:57.759Z,541.00
2023-04-15T04:01:57.853Z,525.00
2023-04-15T04:02:57.924Z,536.00
2023-04-15T04:03:57.865Z,523.00
2023-04-15T04:04:57.760Z,536.00
2023-04-15T04:05:57.735Z,514.00
2023-04-15T04:06:57.707Z,517.00
2023-04-15T04:07:57.709Z,504.00
2023-04-15T04:08:57.707Z,534.00
2023-04-15T04:09:57.699Z,506.00
2023-04-15T04:10:57.696Z,487.00
2023-04-15T04:11:57.670Z,502.00
2023-04-15T04:12:57.698Z,513.00
2023-04-15T04:13:57.666Z,509.00
2023-04-15T04:14:57.680Z,535.00
2023-04-15T04:15:57.706Z,566.00
2023-04-15T04:16:57.693Z,569.00
2023-04-15T04:17:57.714Z,604.00
2023-04-15T04:18:57.638Z,606.00
2023-04-15T04:19:57.642Z,551.00
2023-04-15T04:20:57.626Z,542.00
2023-04-15T04:21:57.623Z,541.00
2023-04-15T04:22:57.605Z,523.00
2023-04-15T04:23:57.608Z,544.00
2023-04-15T04:24:57.618Z,513.00
2023-04-15T04:25:57.633Z,503.00
2023-04-15T04:26:57.630Z,505.00
2023-04-15T04:27:57.644Z,522.00
2023-04-15T04:28:57.645Z,531.00
2023-04-15T04:29:57.651Z,552.00
2023-04-15T04:30:57.669Z,542.00
2023-04-15T04:31:57.671Z,567.00
2023-04-15T04:32:57.673Z,569.00
2023-04-15T04:33:57.643Z,584.00
2023-04-15T04:34:57.641Z,614.00
2023-04-15T04:35:57.644Z,587.00
2023-04-15T04:36:57.659Z,541.00
2023-04-15T04:37:57.654Z,584.00
2023-04-15T04:38:57.674Z,550.00
2023-04-15T04:39:57.675Z,532.00
2023-04-15T04:40:57.661Z,574.00
2023-04-15T04:41:57.681Z,624.00
2023-04-15T04:42:57.736Z,594.00
2023-04-15T04:43:57.744Z,552.00
2023-04-15T04:44:57.817Z,516.00
2023-04-15T04:45:57.886Z,569.00
2023-04-15T04:46:57.907Z,570.00
2023-04-15T04:47:58.022Z,533.00
2023-04-15T04:48:58.026Z,499.00
2023-04-15T04:49:58.021Z,514.00
2023-04-15T04:50:58.071Z,562.00
2023-04-15T04:51:58.120Z,530.00
2023-04-15T04:52:58.242Z,522.00
2023-04-15T04:53:58.378Z,572.00
2023-04-15T04:54:58.521Z,584.00
2023-04-15T04:55:58.759Z,582.00
2023-04-15T04:56:58.839Z,560.00
2023-04-15T04:57:59.063Z,550.00
2023-04-15T04:58:59.245Z,561.00
2023-04-15T04:59:59.312Z,564.00
2023-04-15T05:00:59.515Z,553.00
2023-04-15T05:01:59.722Z,544.00
2023-04-15T05:02:59.902Z,522.00
2023-04-15T05:04:00.161Z,500.00
2023-04-15T05:05:00.171Z,515.00
2023-04-15T05:06:00.294Z,557.00
2023-04-15T05:07:00.458Z,524.00
2023-04-15T05:08:00.599Z,508.00
2023-04-15T05:09:01.017Z,526.00
2023-04-15T05:10:00.952Z,508.00
2023-04-15T05:11:01.143Z,500.00
2023-04-15T05:12:01.292Z,524.00
2023-04-15T05:13:01.427Z,575.00
2023-04-15T05:14:01.582Z,603.00
2023-04-15T05:15:01.738Z,582.00
2023-04-15T05:16:01.916Z,605.00
2023-04-15T05:17:02.032Z,589.00
2023-04-15T05:18:02.327Z,609.00
2023-04-15T05:19:02.518Z,648.00
2023-04-15T05:20:02.508Z,656.00
2023-04-15T05:21:02.646Z,638.00
2023-04-15T05:22:02.820Z,671.00
2023-04-15T05:23:03.064Z,685.00
2023-04-15T05:24:03.134Z,706.00
2023-04-15T05:25:03.320Z,753.00
2023-04-15T05:26:03.470Z,667.00
2023-04-15T05:27:03.633Z,678.00
2023-04-15T05:28:03.780Z,748.00
2023-04-15T05:29:04.057Z,716.00
2023-04-15T05:30:04.067Z,750.00
2023-04-15T05:31:04.277Z,843.00
2023-04-15T05:32:04.358Z,815.00
2023-04-15T05:33:04.669Z,818.00
2023-04-15T05:34:04.654Z,873.00
2023-04-15T05:35:04.831Z,836.00
2023-04-15T05:36:05.004Z,877.00
2023-04-15T05:37:05.116Z,909.00
2023-04-15T05:38:05.294Z,902.00
2023-04-15T05:39:05.410Z,919.00
2023-04-15T05:40:05.571Z,996.00
2023-04-15T05:41:05.707Z,927.00
2023-04-15T05:42:05.848Z,928.00
2023-04-15T05:43:06.018Z,940.00
2023-04-15T05:44:06.158Z,898.00
2023-04-15T05:45:06.343Z,978.00
2023-04-15T05:46:06.573Z,919.00
2023-04-15T05:47:06.689Z,985.00
2023-04-15T05:48:06.860Z,977.00
2023-04-15T05:49:07.089Z,956.00
2023-04-15T05:50:07.165Z,926.00
2023-04-15T05:51:07.373Z,998.00
2023-04-15T05:52:07.487Z,984.00
2023-04-15T05:53:07.648Z,1003.00
2023-04-15T05:54:07.782Z,991.00
2023-04-15T05:55:07.960Z,1005.00
2023-04-15T05:56:08.171Z,1021.00
2023-04-15T05:57:08.320Z,1032.00
2023-04-15T05:58:08.483Z,988.00
2023-04-15T05:59:08.678Z,1013.00
2023-04-15T06:00:08.847Z,1016.00
2023-04-15T06:01:09.010Z,1025.00
2023-04-15T06:02:09.007Z,988.00
2023-04-15T06:03:09.191Z,1035.00
2023-04-15T06:04:09.118Z,1003.00
2023-04-15T06:05:09.278Z,989.00
2023-04-15T06:06:09.037Z,970.00
2023-04-15T06:07:09.026Z,1010.00
2023-04-15T06:08:09.026Z,992.00
2023-04-15T06:09:09.015Z,981.00
2023-04-15T06:10:09.020Z,1015.00
2023-04-15T06:11:09.038Z,940.00
2023-04-15T06:12:09.011Z,917.00
2023-04-15T06:13:08.992Z,963.00
2023-04-15T06:14:08.994Z,938.00
2023-04-15T06:15:08.997Z,937.00
2023-04-15T06:16:09.002Z,978.00
2023-04-15T06:17:08.962Z,955.00
2023-04-15T06:18:08.955Z,1017.00
2023-04-15T06:19:08.951Z,986.00
2023-04-15T06:20:08.971Z,994.00
2023-04-15T06:21:08.963Z,983.00
2023-04-15T06:22:08.940Z,985.00
2023-04-15T06:23:08.960Z,986.00
2023-04-15T06:24:08.925Z,1037.00
2023-04-15T06:25:08.942Z,1058.00
2023-04-15T06:26:08.903Z,1068.00
2023-04-15T06:27:08.898Z,1107.00
2023-04-15T06:28:08.911Z,1086.00
2023-04-15T06:29:08.923Z,1095.00
2023-04-15T06:30:08.885Z,1135.00
2023-04-15T06:31:08.907Z,1206.00
2023-04-15T06:32:08.874Z,1128.00
2023-04-15T06:33:08.865Z,1083.00
2023-04-15T06:34:08.848Z,1133.00
2023-04-15T06:35:08.871Z,1175.00
2023-04-15T06:36:08.835Z,1158.00
2023-04-15T06:37:08.847Z,1127.00
2023-04-15T06:38:08.833Z,1204.00
2023-04-15T06:39:08.849Z,1175.00
2023-04-15T06:40:08.850Z,1198.00
2023-04-15T06:41:08.854Z,1206.00
2023-04-15T06:42:08.901Z,1158.00
2023-04-15T06:43:08.941Z,1187.00
2023-04-15T06:44:08.989Z,1225.00
2023-04-15T06:45:09.043Z,1207.00
2023-04-15T06:46:09.116Z,1166.00
2023-04-15T06:47:09.173Z,1176.00
2023-04-15T06:48:09.192Z,1175.00
2023-04-15T06:49:09.244Z,1186.00
2023-04-15T06:50:09.297Z,1136.00
2023-04-15T06:51:09.372Z,1147.00
2023-04-15T06:52:09.390Z,1158.00
2023-04-15T06:53:09.462Z,1140.00
2023-04-15T06:54:09.505Z,1167.00
2023-04-15T06:55:09.542Z,1167.00
2023-04-15T06:56:09.632Z,1130.00
2023-04-15T06:57:09.636Z,1133.00
2023-04-15T06:58:09.697Z,1190.00
2023-04-15T06:59:09.755Z,1142.00
2023-04-15T07:00:09.782Z,1152.00
2023-04-15T07:01:09.874Z,1125.00
2023-04-15T07:02:09.919Z,1167.00
2023-04-15T07:03:09.966Z,1138.00
2023-04-15T07:04:10.030Z,1140.00
2023-04-15T07:05:10.037Z,1175.00
2023-04-15T07:06:10.082Z,1202.00
2023-04-15T07:07:10.121Z,1190.00
2023-04-15T07:08:10.175Z,1205.00
2023-04-15T07:09:10.236Z,1185.00
2023-04-15T07:10:10.329Z,1133.00
2023-04-15T07:11:10.329Z,1103.00
2023-04-15T07:12:10.387Z,1046.00
2023-04-15T07:13:10.419Z,1021.00
2023-04-15T07:14:10.450Z,1027.00
2023-04-15T07:15:10.507Z,1027.00
2023-04-15T07:16:10.591Z,1020.00
2023-04-15T07:17:10.659Z,1069.00
2023-04-15T07:18:10.651Z,1079.00
2023-04-15T07:19:10.687Z,1137.00
2023-04-15T07:20:10.737Z,1042.00
2023-04-15T07:21:10.765Z,1081.00
2023-04-15T07:22:10.797Z,1095.00
2023-04-15T07:23:10.897Z,1090.00
2023-04-15T07:24:10.903Z,1129.00
2023-04-15T07:25:10.927Z,1133.00
2023-04-15T07:26:10.961Z,1119.00
2023-04-15T07:27:11.030Z,1103.00
2023-04-15T07:28:11.104Z,1139.00
2023-04-15T07:29:11.113Z,1125.00
2023-04-15T07:30:11.150Z,1164.00
2023-04-15T07:31:11.307Z,1159.00
2023-04-15T07:32:11.265Z,1151.00
2023-04-15T07:33:11.298Z,1159.00
2023-04-15T07:34:11.346Z,1163.00
2023-04-15T07:35:11.358Z,1119.00
2023-04-15T07:36:11.414Z,1152.00
2023-04-15T07:37:11.454Z,1130.00
2023-04-15T07:38:11.487Z,1177.00
2023-04-15T07:39:11.523Z,1140.00
2023-04-15T07:40:11.575Z,1158.00
2023-04-15T07:41:11.595Z,1115.00
2023-04-15T07:42:11.619Z,1163.00
2023-04-15T07:43:11.664Z,1169.00
2023-04-15T07:44:11.701Z,1117.00
2023-04-15T07:45:11.736Z,1122.00
2023-04-15T07:46:11.822Z,1252.00
2023-04-15T07:47:11.821Z,1291.00
2023-04-15T07:48:11.841Z,1317.00
2023-04-15T07:49:11.897Z,1339.00
2023-04-15T07:50:11.941Z,1341.00
2023-04-15T07:51:11.983Z,1337.00
2023-04-15T07:52:12.022Z,1320.00
2023-04-15T07:53:12.078Z,1324.00
2023-04-15T07:54:12.110Z,1319.00
2023-04-15T07:55:12.180Z,1287.00
2023-04-15T07:56:12.206Z,1343.00
2023-04-15T07:57:12.247Z,1358.00
2023-04-15T07:58:12.297Z,1377.00
2023-04-15T07:59:12.346Z,1382.00
2023-04-15T08:00:12.381Z,1364.00
2023-04-15T08:01:12.429Z,1402.00
2023-04-15T08:02:12.519Z,1380.00
2023-04-15T08:03:12.673Z,1374.00
2023-04-15T08:04:12.632Z,1383.00
2023-04-15T08:05:12.624Z,1367.00
2023-04-15T08:06:12.646Z,1378.00
2023-04-15T08:07:12.688Z,1374.00
2023-04-15T08:08:12.741Z,1360.00
2023-04-15T08:09:12.760Z,1330.00
2023-04-15T08:10:12.820Z,1345.00
2023-04-15T08:11:12.845Z,1341.00
2023-04-15T08:12:12.890Z,1306.00
2023-04-15T08:13:12.931Z,1288.00
2023-04-15T08:14:12.948Z,1276.00
2023-04-15T08:15:12.997Z,1279.00
2023-04-15T08:16:13.041Z,1265.00
2023-04-15T08:17:13.058Z,1227.00
2023-04-15T08:18:13.063Z,1136.00
2023-04-15T08:19:13.092Z,1146.00
2023-04-15T08:20:13.132Z,1108.00
2023-04-15T08:21:13.168Z,1093.00
2023-04-15T08:22:18.047Z,1089.00
2023-04-15T08:23:14.198Z,1089.00
2023-04-15T08:24:13.174Z,1089.00
2023-04-15T08:25:13.185Z,1082.00
2023-04-15T08:26:13.175Z,1093.00
2023-04-15T08:27:13.164Z,1092.00
2023-04-15T08:28:13.157Z,1081.00
2023-04-15T08:29:13.144Z,1075.00
2023-04-15T08:30:13.130Z,1056.00
2023-04-15T08:31:13.143Z,1055.00
2023-04-15T08:32:13.143Z,1020.00
2023-04-15T08:33:13.114Z,1022.00
2023-04-15T08:34:13.117Z,1033.00
2023-04-15T08:35:13.105Z,1028.00
2023-04-15T08:36:13.096Z,1010.00
2023-04-15T08:37:13.093Z,954.00
2023-04-15T08:38:13.085Z,947.00
2023-04-15T08:39:13.067Z,965.00
2023-04-15T08:40:13.067Z,937.00
2023-04-15T08:41:13.044Z,930.00
2023-04-15T08:42:13.054Z,903.00
2023-04-15T08:43:13.042Z,899.00
2023-04-15T08:44:13.036Z,889.00
2023-04-15T08:45:13.031Z,864.00
2023-04-15T08:46:13.044Z,870.00
2023-04-15T08:47:13.029Z,882.00
2023-04-15T08:48:13.045Z,856.00
2023-04-15T08:49:13.018Z,855.00
2023-04-15T08:50:13.038Z,901.00
2023-04-15T08:51:13.041Z,917.00
2023-04-15T08:52:13.086Z,911.00
2023-04-15T08:53:13.115Z,910.00
2023-04-15T08:54:13.126Z,909.00
2023-04-15T08:55:13.163Z,919.00
2023-04-15T08:56:13.211Z,943.00
2023-04-15T08:57:13.224Z,951.00
2023-04-15T08:58:13.261Z,928.00
2023-04-15T08:59:13.320Z,919.00
2023-04-15T09:00:13.390Z,945.00
2023-04-15T09:01:13.459Z,954.00
2023-04-15T09:02:13.567Z,929.00
2023-04-15T09:03:13.601Z,924.00
2023-04-15T09:04:13.698Z,923.00
2023-04-15T09:05:13.677Z,932.00
2023-04-15T09:06:13.737Z,938.00
2023-04-15T09:07:13.776Z,899.00
2023-04-15T09:08:13.926Z,917.00
2023-04-15T09:09:13.872Z,940.00
2023-04-15T09:10:13.938Z,930.00
2023-04-15T09:11:13.989Z,940.00
2023-04-15T09:12:14.022Z,928.00
2023-04-15T09:13:14.076Z,923.00
2023-04-15T09:14:14.119Z,935.00
2023-04-15T09:15:14.151Z,908.00
2023-04-15T09:16:14.237Z,907.00
2023-04-15T09:17:14.244Z,900.00
2023-04-15T09:18:14.288Z,880.00
2023-04-15T09:19:14.333Z,868.00
2023-04-15T09:20:14.373Z,868.00
2023-04-15T09:21:14.409Z,891.00
2023-04-15T09:22:14.452Z,912.00
2023-04-15T09:23:14.507Z,901.00
2023-04-15T09:24:14.537Z,900.00
2023-04-15T09:25:14.562Z,918.00
2023-04-15T09:26:14.599Z,932.00
2023-04-15T09:27:14.642Z,925.00
2023-04-15T09:28:14.680Z,885.00
2023-04-15T09:29:14.708Z,880.00
2023-04-15T09:30:14.745Z,881.00
2023-04-15T09:31:14.824Z,890.00
2023-04-15T09:32:14.783Z,917.00
2023-04-15T09:33:14.816Z,921.00
2023-04-15T09:34:14.847Z,932.00
2023-04-15T09:35:14.870Z,900.00
2023-04-15T09:36:14.913Z,907.00
2023-04-15T09:37:28.584Z,895.00
2023-04-15T09:38:15.931Z,896.00
2023-04-15T09:39:14.915Z,901.00
2023-04-15T09:40:14.916Z,917.00
2023-04-15T09:41:14.892Z,934.00
2023-04-15T09:42:14.893Z,926.00
2023-04-15T09:43:14.886Z,917.00
2023-04-15T09:44:14.871Z,938.00
2023-04-15T09:45:14.874Z,922.00
2023-04-15T09:46:14.914Z,948.00
2023-04-15T09:47:14.861Z,975.00
2023-04-15T09:48:14.894Z,982.00
2023-04-15T09:49:14.882Z,948.00
2023-04-15T09:50:14.866Z,949.00
2023-04-15T09:51:14.837Z,880.00
2023-04-15T09:52:14.838Z,905.00
2023-04-15T09:53:14.832Z,876.00
2023-04-15T09:54:14.854Z,880.00
2023-04-15T09:55:14.828Z,844.00
2023-04-15T09:56:14.822Z,887.00
2023-04-15T09:57:14.810Z,885.00
2023-04-15T09:58:14.787Z,894.00
2023-04-15T09:59:14.784Z,926.00
2023-04-15T10:00:14.836Z,884.00
2023-04-15T10:01:14.823Z,872.00
2023-04-15T10:02:14.867Z,868.00
2023-04-15T10:03:14.825Z,871.00
2023-04-15T10:04:14.880Z,852.00
2023-04-15T10:05:14.766Z,901.00
2023-04-15T10:06:14.746Z,852.00
2023-04-15T10:07:14.735Z,862.00
2023-04-15T10:08:14.736Z,838.00
2023-04-15T10:09:14.755Z,825.00
2023-04-15T10:10:14.780Z,861.00
2023-04-15T10:11:14.737Z,811.00
2023-04-15T10:12:14.742Z,841.00
2023-04-15T10:13:14.744Z,835.00
2023-04-15T10:14:14.769Z,867.00
2023-04-15T10:15:14.771Z,844.00
2023-04-15T10:16:14.775Z,791.00
2023-04-15T10:17:14.771Z,798.00
2023-04-15T10:18:14.817Z,796.00
2023-04-15T10:19:14.770Z,805.00
2023-04-15T10:20:14.810Z,821.00
2023-04-15T10:21:14.768Z,811.00
2023-04-15T10:22:14.771Z,747.00
2023-04-15T10:23:14.804Z,746.00
2023-04-15T10:24:14.794Z,788.00
2023-04-15T10:25:14.781Z,765.00
2023-04-15T10:26:14.909Z,735.00
2023-04-15T10:27:14.909Z,731.00
2023-04-15T10:28:14.954Z,726.00
2023-04-15T10:29:14.946Z,732.00
2023-04-15T10:30:14.960Z,660.00
2023-04-15T10:31:15.053Z,650.00
2023-04-15T10:32:14.948Z,720.00
2023-04-15T10:33:14.942Z,703.00
2023-04-15T10:34:14.953Z,661.00
2023-04-15T10:35:14.949Z,660.00
2023-04-15T10:36:14.981Z,644.00
2023-04-15T10:37:14.967Z,652.00
2023-04-15T10:38:14.984Z,705.00
2023-04-15T10:39:14.969Z,658.00
2023-04-15T10:40:14.965Z,665.00
2023-04-15T10:41:15.801Z,679.00
2023-04-15T10:42:14.967Z,667.00
2023-04-15T10:43:14.972Z,689.00
2023-04-15T10:44:14.961Z,647.00
2023-04-15T10:45:15.011Z,628.00
2023-04-15T10:46:15.057Z,645.00
2023-04-15T10:47:14.993Z,652.00
2023-04-15T10:48:15.029Z,656.00
2023-04-15T10:49:15.024Z,639.00
2023-04-15T10:50:15.033Z,641.00
2023-04-15T10:51:15.061Z,647.00
2023-04-15T10:52:15.076Z,635.00
2023-04-15T10:53:15.093Z,635.00
2023-04-15T10:54:15.094Z,661.00
2023-04-15T10:55:15.115Z,669.00
2023-04-15T10:56:15.114Z,663.00
2023-04-15T10:57:15.117Z,639.00
2023-04-15T10:58:15.120Z,630.00
2023-04-15T10:59:15.145Z,647.00
2023-04-15T11:00:15.133Z,658.00
2023-04-15T11:01:15.153Z,658.00
2023-04-15T11:02:15.238Z,661.00
2023-04-15T11:03:15.240Z,658.00
2023-04-15T11:04:15.261Z,621.00
2023-04-15T11:05:15.180Z,632.00
2023-04-15T11:06:15.194Z,715.00
2023-04-15T11:07:15.204Z,716.00
2023-04-15T11:08:15.245Z,667.00
2023-04-15T11:09:15.267Z,651.00
2023-04-15T11:10:15.278Z,649.00
2023-04-15T11:11:15.301Z,634.00
2023-04-15T11:12:15.300Z,641.00
2023-04-15T11:13:15.334Z,643.00
2023-04-15T11:14:15.409Z,636.00
2023-04-15T11:15:15.375Z,643.00
2023-04-15T11:16:15.450Z,601.00
2023-04-15T11:17:15.437Z,615.00
2023-04-15T11:18:15.423Z,632.00
2023-04-15T11:19:15.471Z,633.00
2023-04-15T11:20:15.478Z,626.00
2023-04-15T11:21:15.477Z,651.00
2023-04-15T11:22:15.517Z,665.00
2023-04-15T11:23:15.971Z,659.00
2023-04-15T11:24:15.567Z,658.00
2023-04-15T11:25:15.583Z,653.00
2023-04-15T11:26:15.575Z,635.00
2023-04-15T11:27:15.599Z,659.00
2023-04-15T11:28:15.602Z,738.00
2023-04-15T11:29:15.630Z,718.00
2023-04-15T11:30:15.646Z,688.00
2023-04-15T11:31:15.736Z,660.00
2023-04-15T11:32:15.681Z,653.00
2023-04-15T11:33:15.700Z,692.00
2023-04-15T11:34:15.708Z,765.00
2023-04-15T11:35:15.699Z,800.00
2023-04-15T11:36:15.758Z,751.00
2023-04-15T11:37:15.741Z,706.00
2023-04-15T11:38:15.767Z,746.00
2023-04-15T11:39:15.772Z,716.00
2023-04-15T11:40:15.786Z,737.00
2023-04-15T11:41:15.793Z,733.00
2023-04-15T11:42:15.819Z,710.00
2023-04-15T11:43:15.841Z,749.00
2023-04-15T11:44:15.906Z,785.00
2023-04-15T11:45:15.920Z,803.00
2023-04-15T11:46:16.019Z,802.00
2023-04-15T11:47:15.940Z,774.00
2023-04-15T11:48:15.969Z,842.00
2023-04-15T11:49:16.043Z,816.00
2023-04-15T11:50:16.003Z,767.00
2023-04-15T11:51:16.040Z,765.00
2023-04-15T11:52:16.042Z,808.00
2023-04-15T11:53:16.053Z,854.00
2023-04-15T11:54:16.094Z,817.00
2023-04-15T11:55:16.101Z,805.00
2023-04-15T11:56:16.120Z,781.00
2023-04-15T11:57:16.131Z,842.00
2023-04-15T11:58:16.589Z,773.00
2023-04-15T11:59:16.182Z,773.00
2023-04-15T12:00:16.215Z,760.00
2023-04-15T12:01:16.225Z,840.00
2023-04-15T12:02:16.382Z,790.00
2023-04-15T12:03:16.432Z,821.00
2023-04-15T12:04:16.415Z,807.00
2023-04-15T12:05:16.421Z,847.00
2023-04-15T12:06:16.395Z,858.00
2023-04-15T12:07:16.375Z,803.00
2023-04-15T12:08:16.387Z,821.00
2023-04-15T12:09:16.435Z,828.00
2023-04-15T12:10:16.463Z,778.00
2023-04-15T12:11:16.513Z,735.00
2023-04-15T12:12:16.541Z,784.00
2023-04-15T12:13:16.579Z,786.00
2023-04-15T12:14:16.596Z,778.00
2023-04-15T12:15:16.620Z,787.00
2023-04-15T12:16:16.816Z,816.00
2023-04-15T12:17:16.714Z,806.00
2023-04-15T12:18:16.758Z,774.00
2023-04-15T12:19:16.793Z,784.00
2023-04-15T12:20:16.831Z,820.00
2023-04-15T12:21:16.791Z,764.00
2023-04-15T12:22:16.817Z,839.00
2023-04-15T12:23:16.859Z,812.00
2023-04-15T12:24:16.833Z,850.00